createdAt,value
2023-05-10T00:04:35.239Z,1.00
2023-05-10T00:09:37.959Z,1.00
2023-05-10T00:14:40.742Z,1.00
2023-05-10T00:19:44.702Z,1.00
2023-05-10T00:24:47.461Z,1.00
2023-05-10T00:29:50.108Z,1.00
2023-05-10T00:34:54.100Z,1.00
2023-05-10T00:39:56.870Z,1.00
2023-05-10T00:44:59.577Z,1.00
2023-05-10T00:50:04.029Z,1.00
2023-05-10T00:55:08.334Z,1.00
2023-05-10T01:00:12.844Z,1.00
2023-05-10T01:05:17.137Z,1.00
2023-05-10T01:10:20.381Z,1.00
2023-05-10T01:15:23.860Z,1.00
2023-05-10T01:20:36.377Z,1.00
2023-05-10T01:26:09.471Z,1.00
2023-05-10T01:31:35.453Z,1.00
2023-05-10T01:36:47.483Z,1.00
2023-05-10T01:41:54.764Z,1.00
2023-05-10T01:47:06.362Z,1.00
2023-05-10T01:52:13.835Z,1.00
2023-05-10T01:57:18.647Z,1.00
2023-05-10T02:02:23.130Z,1.00
2023-05-10T02:07:28.745Z,1.00
2023-05-10T02:12:33.110Z,1.00
2023-05-10T02:17:37.371Z,1.00
2023-05-10T02:22:43.581Z,1.00
2023-05-10T02:27:48.576Z,1.00
2023-05-10T02:32:52.555Z,1.00
2023-05-10T02:37:58.436Z,1.00
2023-05-10T02:43:03.404Z,49.40
2023-05-10T02:48:06.625Z,95.80
2023-05-10T02:53:16.789Z,99.90
2023-05-10T02:58:20.246Z,99.90
2023-05-10T03:03:23.064Z,99.90
2023-05-10T03:08:30.264Z,95.60
2023-05-10T03:13:38.723Z,99.90
2023-05-10T03:18:46.372Z,99.90
2023-05-10T03:23:56.706Z,99.90
2023-05-10T03:29:00.582Z,99.90
2023-05-10T03:34:03.418Z,99.90
2023-05-10T03:39:07.433Z,99.90
2023-05-10T03:44:10.107Z,99.90
2023-05-10T03:49:13.014Z,99.90
2023-05-10T03:54:17.010Z,99.90
2023-05-10T03:59:19.668Z,99.90
2023-05-10T04:04:22.821Z,99.90
2023-05-10T04:09:26.917Z,99.90
2023-05-10T04:14:29.610Z,99.90
2023-05-10T04:19:32.824Z,99.90
2023-05-10T04:24:36.858Z,99.90
2023-05-10T04:29:39.501Z,99.90
2023-05-10T04:34:42.158Z,99.90
2023-05-10T04:39:46.123Z,99.90
2023-05-10T04:44:48.765Z,99.90
2023-05-10T04:49:51.561Z,99.90
2023-05-10T04:54:55.710Z,99.90
2023-05-10T04:59:58.355Z,99.90
2023-05-10T05:05:01.012Z,99.90
2023-05-10T05:10:05.537Z,75.00
2023-05-10T05:15:10.088Z,14.80
2023-05-10T05:20:14.073Z,1.00
2023-05-10T05:25:18.238Z,19.80
2023-05-10T05:30:21.105Z,1.00
2023-05-10T05:35:23.872Z,1.00
2023-05-10T05:40:27.973Z,1.00
2023-05-10T05:45:30.723Z,1.00
2023-05-10T05:50:33.393Z,1.00
2023-05-10T05:55:37.450Z,1.00
2023-05-10T06:00:40.141Z,1.00
2023-05-10T06:05:42.795Z,1.00
2023-05-10T06:10:46.792Z,1.00
2023-05-10T06:15:49.501Z,1.00
2023-05-10T06:20:52.700Z,1.00
2023-05-10T06:25:56.696Z,1.00
2023-05-10T06:30:59.481Z,1.00
2023-05-10T06:36:02.880Z,1.00
2023-05-10T06:41:07.031Z,1.00
2023-05-10T06:46:09.707Z,1.00
2023-05-10T06:51:12.423Z,1.00
2023-05-10T06:56:16.463Z,1.00
2023-05-10T07:01:19.245Z,1.00
2023-05-10T07:06:33.055Z,1.00
2023-05-10T07:11:38.388Z,1.00
2023-05-10T07:16:41.084Z,1.00
2023-05-10T07:21:44.289Z,1.00
2023-05-10T07:26:48.251Z,1.00
2023-05-10T07:31:51.130Z,1.00
2023-05-10T07:36:53.827Z,1.00
2023-05-10T07:41:57.938Z,1.00
2023-05-10T07:47:00.561Z,1.00
2023-05-10T07:52:04.652Z,1.00
2023-05-10T07:57:08.592Z,1.00
2023-05-10T08:02:11.286Z,1.00
2023-05-10T08:07:13.926Z,1.00
2023-05-10T08:12:17.890Z,1.00
2023-05-10T08:17:22.070Z,1.00
2023-05-10T08:22:26.226Z,1.00
2023-05-10T08:27:30.235Z,1.00
2023-05-10T08:32:32.927Z,1.00
2023-05-10T08:37:35.664Z,1.00
2023-05-10T08:42:44.064Z,1.00
2023-05-10T08:47:47.580Z,1.00
2023-05-10T08:52:52.512Z,1.00
2023-05-10T08:57:57.051Z,99.90
2023-05-10T09:03:00.378Z,99.90
2023-05-10T09:08:03.076Z,99.90
2023-05-10T09:13:07.559Z,99.90
2023-05-10T09:18:10.324Z,99.90
2023-05-10T09:23:12.983Z,99.90
2023-05-10T09:28:16.970Z,99.90
2023-05-10T09:33:20.141Z,99.90
2023-05-10T09:38:23.614Z,99.90
2023-05-10T09:43:28.217Z,99.90
2023-05-10T09:48:30.933Z,99.90
2023-05-10T09:53:33.587Z,99.90
2023-05-10T09:58:40.824Z,99.90
2023-05-10T10:03:44.939Z,99.90
2023-05-10T10:08:48.203Z,99.90
2023-05-10T10:13:52.431Z,99.90
2023-05-10T10:18:55.367Z,99.90
2023-05-10T10:23:58.320Z,99.90
2023-05-10T10:29:12.487Z,99.90
2023-05-10T10:34:27.817Z,99.90
2023-05-10T10:39:30.595Z,99.90
2023-05-10T10:44:42.570Z,99.90
2023-05-10T10:49:50.368Z,99.90
2023-05-10T10:54:54.133Z,99.90
2023-05-10T11:00:32.185Z,99.90
2023-05-10T11:05:41.250Z,99.90
2023-05-10T11:10:53.880Z,99.90
2023-05-10T11:15:59.809Z,99.90
2023-05-10T11:21:06.023Z,99.90
2023-05-10T11:26:11.896Z,99.90
2023-05-10T11:31:17.928Z,99.90
2023-05-10T11:36:22.861Z,99.90
2023-05-10T11:41:26.865Z,99.90
2023-05-10T11:46:30.911Z,99.90
2023-05-10T11:51:36.664Z,99.90
2023-05-10T11:56:40.347Z,99.90
2023-05-10T12:01:44.369Z,99.90
2023-05-10T12:06:47.523Z,99.90
2023-05-10T12:11:50.381Z,99.90
2023-05-10T12:16:54.460Z,99.90
2023-05-10T12:21:57.192Z,99.90
2023-05-10T12:26:59.835Z,99.90
2023-05-10T12:32:04.376Z,99.90
2023-05-10T12:37:07.082Z,99.90
2023-05-10T12:42:09.805Z,99.90
2023-05-10T12:47:13.785Z,99.90
2023-05-10T12:52:16.622Z,97.40
2023-05-10T12:57:19.436Z,96.70
2023-05-10T13:02:24.107Z,99.10
2023-05-10T13:07:27.003Z,99.90
2023-05-10T13:12:30.288Z,99.90
2023-05-10T13:17:34.431Z,99.90
2023-05-10T13:22:40.569Z,99.90
2023-05-10T13:27:43.717Z,99.90
2023-05-10T13:32:47.680Z,99.90
2023-05-10T13:37:50.374Z,99.90
2023-05-10T13:42:53.991Z,99.90
2023-05-10T13:47:58.294Z,99.90
2023-05-10T13:53:01.116Z,99.90
2023-05-10T13:58:03.870Z,99.90
2023-05-10T14:03:10.067Z,99.90
2023-05-10T14:08:14.136Z,99.90
2023-05-10T14:13:17.232Z,99.90
2023-05-10T14:18:21.324Z,99.90
2023-05-10T14:23:25.802Z,99.90
2023-05-10T14:28:28.575Z,99.90
2023-05-10T14:33:32.585Z,99.90
2023-05-10T14:38:35.322Z,99.90
2023-05-10T14:43:38.034Z,99.90
2023-05-10T14:48:41.977Z,99.90
2023-05-10T14:53:44.886Z,99.90
2023-05-10T14:58:47.517Z,99.90
2023-05-10T15:03:51.591Z,99.90
2023-05-10T15:08:54.993Z,99.90
2023-05-10T15:13:57.640Z,99.90
2023-05-10T15:19:01.642Z,99.90
2023-05-10T15:24:04.797Z,99.90
2023-05-10T15:29:07.464Z,99.90
2023-05-10T15:34:11.443Z,99.90
2023-05-10T15:39:14.122Z,99.90
2023-05-10T15:44:16.826Z,99.90
2023-05-10T15:49:20.820Z,1.00
2023-05-10T15:54:23.509Z,1.00
2023-05-10T15:59:26.425Z,1.00
2023-05-10T16:04:30.421Z,1.00
2023-05-10T16:09:33.069Z,1.00
2023-05-10T16:14:35.778Z,1.00
2023-05-10T16:19:39.752Z,1.00
2023-05-10T16:24:42.474Z,1.00
2023-05-10T16:29:48.238Z,1.00
2023-05-10T16:34:53.336Z,1.00
2023-05-10T16:39:56.002Z,1.00
2023-05-10T16:44:58.701Z,1.00
2023-05-10T16:50:03.350Z,1.00
2023-05-10T16:55:06.914Z,1.00
2023-05-10T17:00:11.910Z,1.00
2023-05-10T17:05:16.217Z,1.00
2023-05-10T17:10:19.246Z,1.00
2023-05-10T17:15:22.152Z,1.00
2023-05-10T17:20:26.482Z,1.00
2023-05-10T17:25:29.130Z,1.00
2023-05-10T17:30:32.712Z,1.00
2023-05-10T17:35:36.773Z,1.00
2023-05-10T17:40:41.461Z,1.00
2023-05-10T17:45:46.632Z,1.00
2023-05-10T17:50:52.337Z,1.00
2023-05-10T17:55:57.901Z,1.00
2023-05-10T18:01:00.757Z,3.70
2023-05-10T18:06:05.369Z,1.00
2023-05-10T18:11:08.195Z,1.00
2023-05-10T18:16:12.710Z,99.90
2023-05-10T18:21:17.734Z,99.90
2023-05-10T18:26:20.705Z,1.00
2023-05-10T18:31:23.744Z,1.00
2023-05-10T18:36:29.939Z,1.00
2023-05-10T18:41:32.914Z,87.80
2023-05-10T18:46:35.668Z,7.40
2023-05-10T18:51:39.725Z,99.90
2023-05-10T18:56:44.994Z,99.90
2023-05-10T19:01:49.588Z,1.00
2023-05-10T19:06:55.730Z,1.00
2023-05-10T19:11:58.416Z,1.00
2023-05-10T19:17:01.144Z,1.00
2023-05-10T19:22:05.228Z,99.90
2023-05-10T19:27:09.170Z,99.90
2023-05-10T19:32:12.080Z,1.00
2023-05-10T19:37:16.230Z,1.00
2023-05-10T19:42:19.040Z,1.00
2023-05-10T19:47:21.756Z,24.70
2023-05-10T19:52:25.818Z,1.00
2023-05-10T19:57:28.478Z,99.90
2023-05-10T20:02:31.180Z,99.90
2023-05-10T20:07:35.359Z,99.90
2023-05-10T20:12:38.065Z,1.00
2023-05-10T20:17:41.246Z,1.00
2023-05-10T20:22:45.611Z,1.00
2023-05-10T20:27:50.738Z,1.00
2023-05-10T20:32:53.458Z,1.00
2023-05-10T20:37:57.726Z,1.00
2023-05-10T20:43:00.619Z,99.90
2023-05-10T20:48:03.679Z,1.00
2023-05-10T20:53:07.721Z,1.00
2023-05-10T20:58:10.410Z,1.00
2023-05-10T21:03:13.103Z,1.00
2023-05-10T21:08:17.131Z,1.00
2023-05-10T21:13:19.814Z,1.00
2023-05-10T21:18:22.959Z,1.00
2023-05-10T21:23:26.993Z,1.00
2023-05-10T21:28:29.718Z,1.00
2023-05-10T21:33:32.384Z,1.00
2023-05-10T21:38:36.384Z,1.00
2023-05-10T21:43:39.071Z,1.00
2023-05-10T21:48:41.980Z,1.00
2023-05-10T21:53:46.009Z,1.00
2023-05-10T21:58:48.826Z,1.00
2023-05-10T22:03:51.508Z,1.00
2023-05-10T22:08:55.505Z,1.00
2023-05-10T22:13:58.132Z,1.00
2023-05-10T22:19:01.154Z,1.00
2023-05-10T22:24:05.248Z,1.00
2023-05-10T22:29:07.929Z,1.00
2023-05-10T22:34:10.750Z,1.00
2023-05-10T22:39:14.736Z,6.20
2023-05-10T22:44:17.631Z,13.90
2023-05-10T22:49:20.343Z,90.80
2023-05-10T22:54:24.347Z,98.00
2023-05-10T22:59:28.524Z,19.50
2023-05-10T23:04:31.270Z,10.60
2023-05-10T23:09:35.291Z,34.10
2023-05-10T23:14:38.080Z,52.80
2023-05-10T23:19:40.739Z,99.90
2023-05-10T23:24:44.705Z,46.80
2023-05-10T23:29:47.349Z,89.30
2023-05-10T23:34:50.199Z,72.50
2023-05-10T23:39:54.251Z,90.90
2023-05-10T23:44:57.084Z,99.90
2023-05-10T23:49:59.855Z,99.90
2023-05-10T23:55:04.122Z,99.90
